Time;durP1;ratioP1;P1;durP2;ratioP2;P2;SDS_P1;SDS_P2;PMS_P1;PMS_P2;Temp;Humidity;BMP_temperature;BMP_pressure;BME280_temperature;BME280_humidity;BME280_pressure;Samples;Min_cycle;Max_cycle;Signal;HPM_P1;HPM_P2
2022/04/03 00:00:45;;;;;;;;;;;3.70;99.90;;;;;;5051466;28;19932;-62
2022/04/03 00:03:12;;;;;;;;;;;3.80;99.90;;;;;;5050199;28;20451;-60
2022/04/03 00:05:43;;;;;;;;;;;3.70;99.90;;;;;;5051578;28;19976;-61
2022/04/03 00:08:12;;;;;;;;;;;3.80;99.90;;;;;;5051741;28;20344;-61
2022/04/03 00:10:41;;;;;;;;;;;3.80;99.90;;;;;;5051451;28;19936;-61
2022/04/03 00:13:08;;;;;;;;;;;3.70;99.90;;;;;;5050562;28;19932;-61
2022/04/03 00:15:41;;;;;;;;;;;3.60;99.90;;;;;;5051537;28;19956;-59
2022/04/03 00:18:09;;;;;;;;;;;3.80;99.90;;;;;;5051454;28;19925;-60
2022/04/03 00:20:37;;;;;;;;;;;3.90;99.90;;;;;;5051180;28;20344;-61
2022/04/03 00:23:06;;;;;;;;;;;3.90;99.90;;;;;;5050650;28;20023;-61
2022/04/03 00:25:34;;;;;;;;;;;4.10;99.90;;;;;;5050929;28;19929;-61
2022/04/03 00:28:02;;;;;;;;;;;4.00;99.90;;;;;;5051334;28;20398;-61
2022/04/03 00:30:30;;;;;;;;;;;3.90;99.90;;;;;;5050864;28;19978;-61
2022/04/03 00:32:58;;;;;;;;;;;4.10;99.90;;;;;;5050279;28;19933;-60
2022/04/03 00:35:25;;;;;;;;;;;3.80;99.90;;;;;;5051417;28;20394;-61
2022/04/03 00:37:53;;;;;;;;;;;3.80;99.90;;;;;;5051123;28;19975;-61
2022/04/03 00:40:23;;;;;;;;;;;3.90;99.90;;;;;;5050898;28;19976;-61
2022/04/03 00:42:51;;;;;;;;;;;3.90;99.90;;;;;;5050610;28;19925;-61
2022/04/03 00:45:19;;;;;;;;;;;3.80;99.90;;;;;;5051201;28;19974;-59
2022/04/03 00:47:49;;;;;;;;;;;3.70;99.90;;;;;;5051138;28;20389;-61
2022/04/03 00:50:18;;;;;;;;;;;3.50;99.90;;;;;;5052073;28;19929;-61
2022/04/03 00:52:45;;;;;;;;;;;3.30;99.90;;;;;;5050238;28;19948;-61
2022/04/03 00:55:13;;;;;;;;;;;3.00;99.90;;;;;;5050952;28;20398;-61
2022/04/03 00:57:43;;;;;;;;;;;3.00;99.90;;;;;;5051225;28;19967;-61
2022/04/03 01:00:12;;;;;;;;;;;3.10;99.90;;;;;;5050688;28;20387;-60
2022/04/03 01:02:40;;;;;;;;;;;3.10;99.90;;;;;;5049600;28;19929;-61
2022/04/03 01:05:08;;;;;;;;;;;3.00;99.90;;;;;;5049569;28;19925;-60
2022/04/03 01:07:36;;;;;;;;;;;3.00;99.90;;;;;;5050999;28;19968;-60
2022/04/03 01:10:04;;;;;;;;;;;3.00;99.90;;;;;;5050620;28;19968;-60
2022/04/03 01:12:32;;;;;;;;;;;3.20;99.90;;;;;;5050086;28;19970;-61
2022/04/03 01:15:19;;;;;;;;;;;3.10;99.90;;;;;;5051022;28;19956;-60
2022/04/03 01:17:47;;;;;;;;;;;2.90;99.90;;;;;;5050630;28;19929;-60
2022/04/03 01:20:15;;;;;;;;;;;2.90;99.90;;;;;;5050665;28;20500;-61
2022/04/03 01:22:42;;;;;;;;;;;3.00;99.90;;;;;;5050182;28;19956;-61
2022/04/03 01:25:14;;;;;;;;;;;2.90;99.90;;;;;;5050837;28;20015;-61
2022/04/03 01:27:42;;;;;;;;;;;2.80;99.90;;;;;;5050603;28;20309;-61
2022/04/03 01:30:11;;;;;;;;;;;2.90;99.90;;;;;;5050363;28;19971;-61
2022/04/03 01:32:39;;;;;;;;;;;3.00;99.90;;;;;;5046359;28;20297;-60
2022/04/03 01:35:08;;;;;;;;;;;2.80;99.90;;;;;;5044383;28;19924;-61
2022/04/03 01:37:35;;;;;;;;;;;2.90;99.90;;;;;;5052331;28;19971;-61
2022/04/03 01:40:04;;;;;;;;;;;2.90;99.90;;;;;;5054109;28;19956;-61
2022/04/03 01:42:33;;;;;;;;;;;2.80;99.90;;;;;;5053474;28;20428;-61
2022/04/03 01:45:02;;;;;;;;;;;2.80;99.90;;;;;;5047575;28;20369;-61
2022/04/03 01:47:29;;;;;;;;;;;2.80;99.90;;;;;;5047569;28;19971;-61
2022/04/03 01:49:57;;;;;;;;;;;2.90;99.90;;;;;;5053981;28;20040;-61
2022/04/03 01:52:25;;;;;;;;;;;3.00;99.90;;;;;;5053304;28;19924;-61
2022/04/03 01:54:52;;;;;;;;;;;2.80;99.90;;;;;;5053795;28;19933;-61
2022/04/03 01:57:20;;;;;;;;;;;2.60;99.90;;;;;;5053794;28;19925;-61
2022/04/03 01:59:49;;;;;;;;;;;2.50;99.90;;;;;;5053616;28;19972;-61
2022/04/03 02:02:17;;;;;;;;;;;2.70;99.90;;;;;;5052922;28;19948;-61
2022/04/03 02:04:46;;;;;;;;;;;2.80;99.90;;;;;;5049050;28;19933;-61
2022/04/03 02:07:13;;;;;;;;;;;2.80;99.90;;;;;;5053783;28;19967;-61
2022/04/03 02:09:42;;;;;;;;;;;2.80;99.90;;;;;;5053434;28;20540;-61
2022/04/03 02:12:10;;;;;;;;;;;2.70;99.90;;;;;;5052875;28;20031;-61
2022/04/03 02:14:38;;;;;;;;;;;2.70;99.90;;;;;;5053646;28;19970;-60
2022/04/03 02:17:07;;;;;;;;;;;2.70;99.90;;;;;;5053698;28;19925;-61
2022/04/03 02:19:35;;;;;;;;;;;2.60;99.90;;;;;;5053031;28;19925;-61
2022/04/03 02:22:02;;;;;;;;;;;2.70;99.90;;;;;;5052735;28;19971;-60
2022/04/03 02:24:30;;;;;;;;;;;2.90;99.90;;;;;;5053488;28;19978;-61
2022/04/03 02:26:58;;;;;;;;;;;2.90;99.90;;;;;;5053439;28;19925;-61
2022/04/03 02:29:25;;;;;;;;;;;2.70;99.90;;;;;;5053308;28;19978;-61
2022/04/03 02:31:53;;;;;;;;;;;2.80;99.90;;;;;;5053035;28;19928;-60
2022/04/03 02:34:22;;;;;;;;;;;2.90;99.90;;;;;;5052607;28;19925;-61
2022/04/03 02:36:50;;;;;;;;;;;2.80;99.90;;;;;;5052931;28;19925;-61
2022/04/03 02:39:18;;;;;;;;;;;2.80;99.90;;;;;;5053091;28;20416;-61
2022/04/03 02:41:45;;;;;;;;;;;2.80;99.90;;;;;;5053241;28;20023;-61
2022/04/03 02:44:13;;;;;;;;;;;2.70;99.90;;;;;;5052266;28;19929;-61
2022/04/03 02:46:41;;;;;;;;;;;2.80;99.90;;;;;;5053032;28;20026;-61
2022/04/03 02:49:09;;;;;;;;;;;2.80;99.90;;;;;;5052615;28;19979;-63
2022/04/03 02:51:39;;;;;;;;;;;2.80;99.90;;;;;;5052798;28;19929;-61
2022/04/03 02:54:06;;;;;;;;;;;2.70;99.90;;;;;;5051723;28;19971;-62
2022/04/03 02:56:34;;;;;;;;;;;2.80;99.90;;;;;;5052822;28;19924;-61
2022/04/03 02:59:02;;;;;;;;;;;2.90;99.90;;;;;;5052767;28;20007;-61
2022/04/03 03:01:30;;;;;;;;;;;3.00;99.90;;;;;;5052252;28;20389;-60
2022/04/03 03:03:57;;;;;;;;;;;3.20;99.90;;;;;;5045608;28;19925;-61
2022/04/03 03:06:25;;;;;;;;;;;3.30;99.90;;;;;;5052589;28;19925;-61
2022/04/03 03:08:54;;;;;;;;;;;3.50;99.90;;;;;;5052633;28;19963;-61
2022/04/03 03:11:22;;;;;;;;;;;3.60;99.90;;;;;;5052299;28;20031;-61
2022/04/03 03:13:50;;;;;;;;;;;3.60;99.90;;;;;;5051765;28;19972;-61
2022/04/03 03:16:18;;;;;;;;;;;3.50;99.90;;;;;;5052419;28;20289;-61
2022/04/03 03:18:46;;;;;;;;;;;3.50;99.90;;;;;;5052242;28;19983;-61
2022/04/03 03:21:15;;;;;;;;;;;3.40;99.90;;;;;;5052075;28;19975;-61
2022/04/03 03:23:43;;;;;;;;;;;3.20;99.90;;;;;;5051665;28;19929;-61
2022/04/03 03:26:12;;;;;;;;;;;3.00;99.90;;;;;;5052179;28;19925;-60
2022/04/03 03:28:40;;;;;;;;;;;3.00;99.90;;;;;;5052140;28;20016;-60
2022/04/03 03:31:08;;;;;;;;;;;3.20;99.90;;;;;;5051600;28;20023;-61
2022/04/03 03:33:35;;;;;;;;;;;3.30;99.90;;;;;;5051018;28;20393;-61
2022/04/03 03:36:03;;;;;;;;;;;3.40;99.90;;;;;;5052088;28;19972;-61
2022/04/03 03:38:31;;;;;;;;;;;3.50;99.90;;;;;;5052083;28;20023;-60
2022/04/03 03:40:59;;;;;;;;;;;3.50;99.90;;;;;;5051933;28;19978;-60
2022/04/03 03:43:28;;;;;;;;;;;3.50;99.90;;;;;;5050989;28;20019;-60
2022/04/03 03:45:56;;;;;;;;;;;3.70;99.90;;;;;;5052003;28;19925;-60
2022/04/03 03:48:25;;;;;;;;;;;3.70;99.90;;;;;;5051729;28;19935;-61
2022/04/03 03:50:53;;;;;;;;;;;3.70;99.90;;;;;;5051649;28;19968;-60
2022/04/03 03:53:21;;;;;;;;;;;3.70;99.90;;;;;;5050959;28;19924;-60
2022/04/03 03:55:49;;;;;;;;;;;3.60;99.90;;;;;;5051786;28;20453;-60
2022/04/03 03:58:17;;;;;;;;;;;3.50;99.90;;;;;;5051692;28;19929;-60
2022/04/03 04:00:46;;;;;;;;;;;3.50;99.90;;;;;;5058091;28;19929;-61
2022/04/03 04:03:14;;;;;;;;;;;3.50;99.90;;;;;;5050316;28;20039;-61
2022/04/03 04:05:42;;;;;;;;;;;3.50;99.90;;;;;;5051631;28;19967;-61
2022/04/03 04:08:10;;;;;;;;;;;3.50;99.90;;;;;;5051616;28;19978;-62
2022/04/03 04:10:37;;;;;;;;;;;3.60;99.90;;;;;;5051082;28;19970;-60
2022/04/03 04:13:05;;;;;;;;;;;3.60;99.90;;;;;;5050412;28;19968;-61
2022/04/03 04:15:33;;;;;;;;;;;3.40;99.90;;;;;;5051503;28;20549;-62
2022/04/03 04:18:03;;;;;;;;;;;3.30;99.90;;;;;;5051296;28;20464;-61
2022/04/03 04:20:31;;;;;;;;;;;3.30;99.90;;;;;;5051247;28;19968;-62
2022/04/03 04:22:59;;;;;;;;;;;3.20;99.90;;;;;;5032813;28;19972;-60
2022/04/03 04:25:26;;;;;;;;;;;3.10;99.90;;;;;;5051133;28;19968;-61
2022/04/03 04:27:54;;;;;;;;;;;2.90;99.90;;;;;;5051389;28;19984;-61
2022/04/03 04:30:22;;;;;;;;;;;2.80;99.90;;;;;;5051055;28;19971;-61
2022/04/03 04:32:51;;;;;;;;;;;2.70;99.90;;;;;;5050083;28;19932;-61
2022/04/03 04:35:20;;;;;;;;;;;2.60;99.90;;;;;;5051100;28;19925;-60
2022/04/03 04:37:47;;;;;;;;;;;2.70;99.90;;;;;;5051173;28;20365;-61
2022/04/03 04:40:16;;;;;;;;;;;2.60;99.90;;;;;;5050947;28;19968;-61
2022/04/03 04:42:43;;;;;;;;;;;2.60;99.90;;;;;;5050650;28;20377;-61
2022/04/03 04:45:11;;;;;;;;;;;2.70;99.90;;;;;;5051352;28;19960;-61
2022/04/03 04:47:44;;;;;;;;;;;2.70;99.90;;;;;;5051433;28;19925;-61
2022/04/03 04:50:14;;;;;;;;;;;2.90;99.90;;;;;;5050672;28;19975;-61
2022/04/03 04:52:43;;;;;;;;;;;2.80;99.90;;;;;;5050231;28;19925;-61
2022/04/03 04:55:12;;;;;;;;;;;2.90;99.90;;;;;;5051199;28;19925;-61
2022/04/03 04:57:40;;;;;;;;;;;2.70;99.90;;;;;;5051126;28;19932;-61
2022/04/03 05:00:09;;;;;;;;;;;2.60;99.90;;;;;;5050820;28;19932;-60
2022/04/03 05:02:36;;;;;;;;;;;2.70;99.90;;;;;;5049636;28;19929;-60
2022/04/03 05:05:05;;;;;;;;;;;2.60;99.90;;;;;;5049799;28;19955;-61
2022/04/03 05:07:34;;;;;;;;;;;2.70;99.90;;;;;;5050897;28;20305;-60
2022/04/03 05:10:04;;;;;;;;;;;2.90;99.90;;;;;;5050610;28;19928;-62
2022/04/03 05:12:37;;;;;;;;;;;2.70;99.90;;;;;;5051884;28;19925;-60
2022/04/03 05:15:06;;;;;;;;;;;2.70;99.90;;;;;;5054686;28;19970;-61
2022/04/03 05:17:33;;;;;;;;;;;2.70;99.90;;;;;;5054538;28;20390;-61
2022/04/03 05:20:01;;;;;;;;;;;2.70;99.90;;;;;;5054545;28;20035;-59
2022/04/03 05:22:29;;;;;;;;;;;2.70;99.90;;;;;;5053873;28;19975;-61
2022/04/03 05:24:57;;;;;;;;;;;2.70;99.90;;;;;;5054490;28;19975;-61
2022/04/03 05:27:26;;;;;;;;;;;2.70;99.90;;;;;;5054431;28;20036;-60
2022/04/03 05:29:55;;;;;;;;;;;2.90;99.90;;;;;;5054112;28;19964;-60
2022/04/03 05:32:27;;;;;;;;;;;2.90;99.90;;;;;;5050385;28;19976;-61
2022/04/03 05:34:54;;;;;;;;;;;2.80;99.90;;;;;;5052824;28;20451;-61
2022/04/03 05:37:22;;;;;;;;;;;2.80;99.90;;;;;;5054159;28;19987;-60
2022/04/03 05:39:51;;;;;;;;;;;2.90;99.90;;;;;;5049112;28;20281;-59
2022/04/03 05:42:18;;;;;;;;;;;2.70;99.90;;;;;;5040974;28;20453;-60
2022/04/03 05:44:48;;;;;;;;;;;2.90;99.90;;;;;;5042182;28;20583;-61
2022/04/03 05:47:17;;;;;;;;;;;2.80;99.90;;;;;;5038914;28;19933;-61
2022/04/03 05:49:45;;;;;;;;;;;2.90;99.90;;;;;;5041709;28;19979;-60
2022/04/03 05:52:13;;;;;;;;;;;2.90;99.90;;;;;;5040561;28;20061;-60
2022/04/03 05:54:40;;;;;;;;;;;2.70;99.90;;;;;;5039577;28;19960;-61
2022/04/03 05:57:10;;;;;;;;;;;2.70;99.90;;;;;;5041630;28;19956;-61
2022/04/03 05:59:37;;;;;;;;;;;2.80;99.90;;;;;;5041789;28;20015;-61
2022/04/03 06:02:08;;;;;;;;;;;2.90;99.90;;;;;;5043243;28;19928;-61
2022/04/03 06:04:36;;;;;;;;;;;3.00;99.90;;;;;;5047347;28;20447;-61
2022/04/03 06:07:04;;;;;;;;;;;2.80;99.90;;;;;;5038793;28;19932;-60
2022/04/03 06:09:32;;;;;;;;;;;3.10;99.90;;;;;;5041236;28;19957;-60
2022/04/03 06:11:59;;;;;;;;;;;3.20;99.90;;;;;;5041236;28;19925;-61
2022/04/03 06:14:27;;;;;;;;;;;3.40;99.90;;;;;;5044612;28;19990;-61
2022/04/03 06:16:55;;;;;;;;;;;3.70;99.90;;;;;;5041320;28;19925;-60
2022/04/03 06:19:24;;;;;;;;;;;3.40;99.90;;;;;;5041136;28;19971;-60
2022/04/03 06:21:52;;;;;;;;;;;3.50;99.90;;;;;;5038130;28;20408;-61
2022/04/03 06:24:19;;;;;;;;;;;3.40;99.90;;;;;;5039961;28;19978;-62
2022/04/03 06:26:47;;;;;;;;;;;3.60;99.90;;;;;;5039935;28;19971;-62
2022/04/03 06:29:15;;;;;;;;;;;3.50;99.90;;;;;;5037969;28;20358;-60
2022/04/03 06:31:43;;;;;;;;;;;3.70;99.90;;;;;;5040366;28;19929;-60
2022/04/03 06:34:11;;;;;;;;;;;3.50;99.90;;;;;;5050871;28;19924;-62
2022/04/03 06:36:40;;;;;;;;;;;3.30;99.90;;;;;;5052738;28;20305;-62
2022/04/03 06:39:07;;;;;;;;;;;3.30;99.90;;;;;;5046516;28;20002;-62
2022/04/03 06:41:35;;;;;;;;;;;3.20;99.90;;;;;;5036566;28;20008;-61
2022/04/03 06:44:03;;;;;;;;;;;3.30;99.90;;;;;;5040113;28;20006;-62
2022/04/03 06:46:32;;;;;;;;;;;3.50;99.90;;;;;;5044131;28;19929;-61
2022/04/03 06:49:00;;;;;;;;;;;3.70;99.90;;;;;;5046864;28;20015;-61
2022/04/03 06:51:28;;;;;;;;;;;4.00;99.90;;;;;;5046238;28;19982;-61
2022/04/03 06:53:57;;;;;;;;;;;4.10;99.90;;;;;;5042438;28;20777;-61
2022/04/03 06:56:24;;;;;;;;;;;3.90;99.90;;;;;;5045688;28;20032;-61
2022/04/03 06:58:52;;;;;;;;;;;3.80;99.90;;;;;;5043528;28;20032;-61
2022/04/03 07:01:20;;;;;;;;;;;4.00;99.90;;;;;;5043779;28;20015;-62
2022/04/03 07:03:50;;;;;;;;;;;4.00;99.90;;;;;;5040556;28;21103;-61
2022/04/03 07:06:17;;;;;;;;;;;3.90;99.90;;;;;;5046254;28;20010;-61
2022/04/03 07:08:48;;;;;;;;;;;3.80;99.90;;;;;;5043319;28;20036;-61
2022/04/03 07:11:17;;;;;;;;;;;3.90;99.90;;;;;;5041459;28;20019;-61
2022/04/03 07:13:45;;;;;;;;;;;3.90;99.60;;;;;;5037010;28;20468;-61
2022/04/03 07:16:13;;;;;;;;;;;4.00;99.40;;;;;;5040260;28;20544;-60
2022/04/03 07:18:41;;;;;;;;;;;3.90;98.90;;;;;;5036626;28;20662;-61
2022/04/03 07:21:08;;;;;;;;;;;4.00;99.30;;;;;;5038648;28;19932;-60
2022/04/03 07:23:36;;;;;;;;;;;4.00;98.50;;;;;;5040831;28;20106;-61
2022/04/03 07:26:05;;;;;;;;;;;4.20;99.00;;;;;;5041960;28;20010;-61
2022/04/03 07:28:34;;;;;;;;;;;4.20;98.00;;;;;;5041571;28;19956;-61
2022/04/03 07:31:02;;;;;;;;;;;4.40;98.20;;;;;;5037526;28;20437;-61
2022/04/03 07:33:30;;;;;;;;;;;4.40;97.10;;;;;;5041773;28;19943;-61
2022/04/03 07:35:58;;;;;;;;;;;4.50;97.40;;;;;;5040310;28;19994;-61
2022/04/03 07:38:26;;;;;;;;;;;4.70;97.00;;;;;;5039265;28;19933;-62
2022/04/03 07:40:54;;;;;;;;;;;4.70;96.10;;;;;;5045772;28;20047;-60
2022/04/03 07:43:23;;;;;;;;;;;4.80;95.40;;;;;;5042346;28;19932;-62
2022/04/03 07:45:52;;;;;;;;;;;4.90;96.20;;;;;;5043569;28;20066;-62
2022/04/03 07:48:20;;;;;;;;;;;4.90;95.30;;;;;;5040151;28;20019;-62
2022/04/03 07:50:49;;;;;;;;;;;4.90;95.10;;;;;;5037508;28;19928;-64
2022/04/03 07:53:17;;;;;;;;;;;5.10;95.20;;;;;;5046084;28;20369;-61
2022/04/03 07:55:45;;;;;;;;;;;5.20;94.80;;;;;;5042729;28;19936;-62
2022/04/03 07:58:13;;;;;;;;;;;5.30;93.20;;;;;;5044049;28;20040;-62
2022/04/03 08:00:41;;;;;;;;;;;5.30;93.50;;;;;;5042837;28;19932;-61
2022/04/03 08:03:11;;;;;;;;;;;5.40;93.00;;;;;;5040872;28;19971;-61
2022/04/03 08:05:39;;;;;;;;;;;5.40;92.00;;;;;;5039037;28;19933;-62
2022/04/03 08:08:07;;;;;;;;;;;5.60;92.90;;;;;;5037106;28;20380;-62
2022/04/03 08:10:35;;;;;;;;;;;5.60;92.20;;;;;;5040149;28;21221;-64
2022/04/03 08:13:03;;;;;;;;;;;5.80;90.90;;;;;;5041633;28;20362;-64
2022/04/03 08:15:31;;;;;;;;;;;6.00;91.50;;;;;;5044112;28;19961;-62
2022/04/03 08:17:58;;;;;;;;;;;6.20;91.10;;;;;;5045499;28;20442;-61
2022/04/03 08:20:27;;;;;;;;;;;6.20;90.70;;;;;;5036762;28;20028;-62
2022/04/03 08:22:55;;;;;;;;;;;6.30;91.50;;;;;;5042839;28;19933;-62
2022/04/03 08:25:23;;;;;;;;;;;6.50;89.40;;;;;;5039503;28;20019;-61
2022/04/03 08:27:51;;;;;;;;;;;6.60;90.20;;;;;;5043440;28;20779;-62
2022/04/03 08:30:20;;;;;;;;;;;6.70;88.60;;;;;;5038534;28;19933;-62
2022/04/03 08:32:48;;;;;;;;;;;6.80;86.00;;;;;;5036936;28;19933;-62
2022/04/03 08:35:17;;;;;;;;;;;6.70;83.50;;;;;;5039833;28;19939;-62
2022/04/03 08:37:46;;;;;;;;;;;6.70;82.80;;;;;;5035323;28;19944;-61
2022/04/03 08:40:18;;;;;;;;;;;6.60;81.80;;;;;;5040491;28;19966;-62
2022/04/03 08:42:45;;;;;;;;;;;6.60;83.40;;;;;;5038206;28;19937;-62
2022/04/03 08:45:13;;;;;;;;;;;6.80;83.40;;;;;;5042941;28;20033;-61
2022/04/03 08:47:43;;;;;;;;;;;7.00;79.80;;;;;;5042815;28;19999;-61
2022/04/03 08:50:12;;;;;;;;;;;7.00;78.30;;;;;;5043968;28;20027;-61
2022/04/03 08:52:43;;;;;;;;;;;7.00;79.10;;;;;;5045172;28;19975;-61
2022/04/03 08:55:12;;;;;;;;;;;7.10;79.40;;;;;;5041777;28;19938;-61
2022/04/03 08:57:40;;;;;;;;;;;7.30;79.30;;;;;;5050123;28;19932;-61
2022/04/03 09:00:08;;;;;;;;;;;7.40;75.40;;;;;;5040160;28;20021;-61
2022/04/03 09:02:36;;;;;;;;;;;7.40;78.30;;;;;;5038622;28;19975;-61
2022/04/03 09:05:05;;;;;;;;;;;7.70;77.30;;;;;;5039917;28;19972;-62
2022/04/03 09:07:33;;;;;;;;;;;7.80;75.30;;;;;;5043278;28;20424;-63
2022/04/03 09:10:06;;;;;;;;;;;7.90;76.40;;;;;;5048017;28;20024;-61
2022/04/03 09:12:43;;;;;;;;;;;8.00;74.90;;;;;;5050975;28;20441;-64
2022/04/03 09:15:12;;;;;;;;;;;8.30;75.30;;;;;;5041129;28;20203;-61
2022/04/03 09:17:42;;;;;;;;;;;8.10;73.10;;;;;;5049317;28;20564;-62
2022/04/03 09:20:12;;;;;;;;;;;8.20;73.20;;;;;;5041345;28;19940;-63
2022/04/03 09:22:41;;;;;;;;;;;8.50;75.80;;;;;;5041216;28;19932;-62
2022/04/03 09:25:10;;;;;;;;;;;8.40;75.70;;;;;;5045202;28;20058;-61
2022/04/03 09:27:47;;;;;;;;;;;8.50;74.10;;;;;;5039735;28;19964;-61
2022/04/03 09:30:15;;;;;;;;;;;8.50;73.80;;;;;;5046473;28;19956;-62
2022/04/03 09:32:47;;;;;;;;;;;8.40;71.90;;;;;;5043072;28;20963;-62
2022/04/03 09:35:15;;;;;;;;;;;8.40;69.60;;;;;;5046893;28;19939;-63
2022/04/03 09:38:02;;;;;;;;;;;8.50;70.30;;;;;;5045958;28;20063;-62
2022/04/03 09:40:30;;;;;;;;;;;8.50;71.20;;;;;;5046068;28;19928;-62
2022/04/03 09:43:13;;;;;;;;;;;8.00;71.40;;;;;;5041136;28;19964;-61
2022/04/03 09:45:45;;;;;;;;;;;7.30;70.90;;;;;;5045023;28;19998;-62
2022/04/03 09:48:29;;;;;;;;;;;6.90;74.40;;;;;;5036916;28;20516;-61
2022/04/03 09:50:58;;;;;;;;;;;6.80;72.70;;;;;;5045294;28;19932;-61
2022/04/03 09:53:25;;;;;;;;;;;6.70;72.80;;;;;;5044061;28;20043;-61
2022/04/03 09:55:53;;;;;;;;;;;6.50;73.60;;;;;;5037614;28;19968;-62
2022/04/03 09:58:23;;;;;;;;;;;7.00;79.40;;;;;;5041848;28;20037;-62
2022/04/03 10:00:51;;;;;;;;;;;7.60;73.10;;;;;;5039339;28;19972;-61
2022/04/03 10:03:19;;;;;;;;;;;8.30;73.30;;;;;;5040002;28;19939;-62
2022/04/03 10:05:50;;;;;;;;;;;8.60;70.70;;;;;;5038694;28;20726;-62
2022/04/03 10:08:18;;;;;;;;;;;9.00;70.50;;;;;;5042417;28;20401;-61
2022/04/03 10:10:47;;;;;;;;;;;9.10;70.60;;;;;;5043807;28;20475;-61
2022/04/03 10:13:15;;;;;;;;;;;9.30;70.50;;;;;;5041821;28;19979;-61
2022/04/03 10:15:45;;;;;;;;;;;9.40;68.80;;;;;;5050697;28;20703;-62
2022/04/03 10:18:13;;;;;;;;;;;9.40;68.40;;;;;;5044205;28;20836;-61
2022/04/03 10:20:42;;;;;;;;;;;9.20;66.80;;;;;;5047807;28;20502;-61
2022/04/03 10:23:12;;;;;;;;;;;9.30;67.90;;;;;;5042871;28;20051;-61
2022/04/03 10:25:44;;;;;;;;;;;9.50;67.70;;;;;;5041207;28;19932;-61
2022/04/03 10:28:12;;;;;;;;;;;9.90;71.40;;;;;;5042861;28;20799;-62
2022/04/03 10:30:43;;;;;;;;;;;10.20;68.70;;;;;;5043805;28;20442;-62
2022/04/03 10:33:20;;;;;;;;;;;10.60;68.60;;;;;;5040320;28;20133;-61
2022/04/03 10:35:49;;;;;;;;;;;10.40;65.90;;;;;;5040091;28;19940;-62
2022/04/03 10:38:19;;;;;;;;;;;10.40;67.10;;;;;;5039298;28;20060;-62
2022/04/03 10:40:56;;;;;;;;;;;10.30;66.40;;;;;;5044547;28;19937;-62
2022/04/03 10:43:26;;;;;;;;;;;10.30;67.60;;;;;;5039115;28;19935;-63
2022/04/03 10:45:53;;;;;;;;;;;9.90;67.00;;;;;;5042587;28;20028;-63
2022/04/03 10:48:27;;;;;;;;;;;9.80;67.40;;;;;;5042456;28;20028;-62
2022/04/03 10:50:59;;;;;;;;;;;9.90;65.70;;;;;;5040507;28;20829;-62
2022/04/03 10:53:30;;;;;;;;;;;10.40;67.20;;;;;;5048389;28;20583;-62
2022/04/03 10:55:59;;;;;;;;;;;10.60;67.10;;;;;;5048493;28;19937;-62
2022/04/03 10:58:38;;;;;;;;;;;10.80;64.70;;;;;;5041676;28;19986;-62
2022/04/03 11:01:06;;;;;;;;;;;10.70;63.00;;;;;;5044849;28;20023;-62
2022/04/03 11:03:35;;;;;;;;;;;10.60;64.20;;;;;;5048655;28;19929;-62
2022/04/03 11:06:19;;;;;;;;;;;10.30;63.60;;;;;;5038898;28;19932;-62
2022/04/03 11:09:12;;;;;;;;;;;10.40;63.90;;;;;;5039334;28;20051;-62
2022/04/03 11:11:41;;;;;;;;;;;10.40;63.00;;;;;;5029061;28;20039;-62
2022/04/03 11:14:10;;;;;;;;;;;10.90;67.60;;;;;;5038540;28;19991;-61
2022/04/03 11:16:51;;;;;;;;;;;11.20;62.00;;;;;;5041036;28;19964;-63
2022/04/03 11:19:36;;;;;;;;;;;10.80;61.20;;;;;;5039610;28;20440;-63
2022/04/03 11:22:05;;;;;;;;;;;10.10;62.50;;;;;;5045867;28;20480;-64
2022/04/03 11:24:37;;;;;;;;;;;9.90;63.50;;;;;;5039456;28;19939;-63
2022/04/03 11:27:05;;;;;;;;;;;10.10;64.70;;;;;;5036285;28;20027;-63
2022/04/03 11:29:33;;;;;;;;;;;10.30;62.80;;;;;;5036649;28;19979;-63
2022/04/03 11:32:02;;;;;;;;;;;10.70;66.40;;;;;;5048021;28;19964;-62
2022/04/03 11:34:31;;;;;;;;;;;11.10;61.80;;;;;;5046604;28;19932;-63
2022/04/03 11:37:01;;;;;;;;;;;11.80;63.80;;;;;;5043270;28;20025;-63
2022/04/03 11:39:33;;;;;;;;;;;12.30;62.90;;;;;;5036732;28;19936;-63
2022/04/03 11:42:05;;;;;;;;;;;12.40;60.90;;;;;;5041420;28;19933;-63
2022/04/03 11:44:35;;;;;;;;;;;12.40;60.50;;;;;;5035479;28;19933;-63
2022/04/03 11:47:04;;;;;;;;;;;12.20;60.80;;;;;;5036524;28;19939;-63
2022/04/03 11:49:32;;;;;;;;;;;12.20;61.00;;;;;;5036026;28;20774;-62
2022/04/03 11:52:06;;;;;;;;;;;12.00;59.50;;;;;;5037308;28;20028;-63
2022/04/03 11:54:34;;;;;;;;;;;12.20;60.60;;;;;;5039789;28;19968;-63
2022/04/03 11:57:03;;;;;;;;;;;12.10;59.80;;;;;;5039004;28;20469;-62
2022/04/03 11:59:32;;;;;;;;;;;12.20;60.30;;;;;;5038054;28;19982;-63
2022/04/03 12:02:08;;;;;;;;;;;12.40;61.20;;;;;;5042886;28;20021;-63
2022/04/03 12:04:38;;;;;;;;;;;12.10;58.90;;;;;;5040776;28;19938;-63
2022/04/03 12:07:10;;;;;;;;;;;12.00;59.30;;;;;;5039167;28;20039;-62
2022/04/03 12:09:40;;;;;;;;;;;12.30;60.30;;;;;;5042675;28;20038;-64
2022/04/03 12:12:08;;;;;;;;;;;12.90;61.30;;;;;;5040400;28;19960;-64
2022/04/03 12:14:37;;;;;;;;;;;13.00;58.80;;;;;;5042131;28;19940;-62
2022/04/03 12:17:06;;;;;;;;;;;12.90;59.40;;;;;;5043169;28;20425;-62
2022/04/03 12:19:35;;;;;;;;;;;13.30;58.20;;;;;;5045407;28;19935;-62
2022/04/03 12:22:04;;;;;;;;;;;12.80;58.60;;;;;;5047251;28;20694;-62
2022/04/03 12:24:34;;;;;;;;;;;12.80;58.20;;;;;;5040675;28;19937;-62
2022/04/03 12:27:03;;;;;;;;;;;12.80;59.30;;;;;;5041372;28;19932;-62
2022/04/03 12:29:31;;;;;;;;;;;12.70;58.10;;;;;;5039555;28;20023;-64
2022/04/03 12:32:00;;;;;;;;;;;12.70;58.30;;;;;;5046657;28;20460;-63
2022/04/03 12:34:28;;;;;;;;;;;12.80;58.50;;;;;;5037645;28;19932;-62
2022/04/03 12:36:58;;;;;;;;;;;11.80;57.50;;;;;;5041890;28;20025;-63
2022/04/03 12:39:34;;;;;;;;;;;11.40;59.00;;;;;;5041437;28;20444;-63
2022/04/03 12:42:23;;;;;;;;;;;10.90;59.60;;;;;;5043086;28;19968;-63
2022/04/03 12:44:52;;;;;;;;;;;11.30;59.40;;;;;;5033269;28;19971;-62
2022/04/03 12:47:20;;;;;;;;;;;11.90;60.60;;;;;;5036944;28;20059;-63
2022/04/03 12:49:49;;;;;;;;;;;11.90;58.60;;;;;;5035854;28;19932;-64
2022/04/03 12:52:21;;;;;;;;;;;12.40;60.70;;;;;;5039445;28;20015;-63
2022/04/03 12:54:50;;;;;;;;;;;13.20;64.20;;;;;;5043699;28;19959;-62
2022/04/03 13:00:15;;;;;;;;;;;13.30;60.50;;;;;;5038988;28;20116;-63
2022/04/03 13:02:43;;;;;;;;;;;12.70;58.40;;;;;;5035197;28;20486;-63
2022/04/03 13:05:15;;;;;;;;;;;12.20;59.30;;;;;;5042630;28;20016;-64
2022/04/03 13:07:43;;;;;;;;;;;12.40;63.40;;;;;;5050531;28;19971;-63
2022/04/03 13:10:16;;;;;;;;;;;12.20;66.60;;;;;;5050131;28;19986;-63
2022/04/03 13:12:46;;;;;;;;;;;12.00;59.00;;;;;;5050093;28;19962;-62
2022/04/03 13:15:14;;;;;;;;;;;11.50;59.20;;;;;;5050860;28;19965;-64
2022/04/03 13:17:42;;;;;;;;;;;11.10;69.30;;;;;;5051221;28;20294;-63
2022/04/03 13:20:10;;;;;;;;;;;10.90;59.10;;;;;;5050383;28;20453;-63
2022/04/03 13:22:38;;;;;;;;;;;10.70;60.90;;;;;;5050262;28;19995;-63
2022/04/03 13:25:12;;;;;;;;;;;11.40;67.50;;;;;;5050752;28;19928;-63
2022/04/03 13:27:41;;;;;;;;;;;12.30;59.60;;;;;;5050755;28;19924;-64
2022/04/03 13:30:09;;;;;;;;;;;12.60;58.20;;;;;;5050678;28;19976;-63
2022/04/03 13:32:37;;;;;;;;;;;13.10;60.40;;;;;;5050552;28;19932;-63
2022/04/03 13:35:05;;;;;;;;;;;13.40;59.90;;;;;;5054215;28;19978;-64
2022/04/03 13:37:32;;;;;;;;;;;13.50;60.60;;;;;;5054139;28;19925;-63
2022/04/03 13:40:01;;;;;;;;;;;12.70;57.70;;;;;;5054332;28;19956;-64
2022/04/03 13:42:29;;;;;;;;;;;12.40;58.20;;;;;;5053519;28;19931;-64
2022/04/03 13:44:58;;;;;;;;;;;12.10;60.60;;;;;;5054149;28;20020;-63
2022/04/03 13:47:26;;;;;;;;;;;13.20;61.40;;;;;;5053992;28;19932;-64
2022/04/03 13:49:54;;;;;;;;;;;14.10;58.40;;;;;;5053501;28;20345;-64
2022/04/03 13:52:21;;;;;;;;;;;14.40;58.60;;;;;;5053297;28;19929;-64
2022/04/03 13:54:49;;;;;;;;;;;14.70;59.10;;;;;;5054190;28;20023;-64
2022/04/03 13:57:17;;;;;;;;;;;15.10;58.80;;;;;;5054081;28;20455;-64
2022/04/03 13:59:44;;;;;;;;;;;15.30;55.40;;;;;;5053577;28;20439;-63
2022/04/03 14:02:14;;;;;;;;;;;14.30;56.30;;;;;;5053313;28;20366;-63
2022/04/03 14:04:42;;;;;;;;;;;13.40;60.20;;;;;;5053001;28;19964;-62
2022/04/03 14:07:09;;;;;;;;;;;12.80;57.70;;;;;;5054054;28;19925;-63
2022/04/03 14:09:37;;;;;;;;;;;12.40;57.30;;;;;;5053610;28;20424;-63
2022/04/03 14:12:07;;;;;;;;;;;12.50;58.40;;;;;;5053001;28;20042;-63
2022/04/03 14:14:41;;;;;;;;;;;13.10;58.20;;;;;;5053797;28;19975;-63
2022/04/03 14:17:09;;;;;;;;;;;13.50;58.00;;;;;;5053454;28;19929;-63
2022/04/03 14:19:38;;;;;;;;;;;13.50;59.50;;;;;;5053441;28;20032;-63
2022/04/03 14:22:07;;;;;;;;;;;13.50;59.40;;;;;;5052793;28;19967;-63
2022/04/03 14:24:36;;;;;;;;;;;13.40;57.70;;;;;;5053387;28;19978;-63
2022/04/03 14:27:04;;;;;;;;;;;13.80;60.20;;;;;;5053445;28;19968;-64
2022/04/03 14:29:32;;;;;;;;;;;14.10;62.90;;;;;;5053175;28;20374;-63
2022/04/03 14:31:59;;;;;;;;;;;13.90;57.90;;;;;;5052807;28;19928;-63
2022/04/03 14:34:27;;;;;;;;;;;13.80;58.20;;;;;;5052690;28;19968;-64
2022/04/03 14:36:56;;;;;;;;;;;13.10;58.00;;;;;;5053103;28;20397;-63
2022/04/03 14:39:24;;;;;;;;;;;12.80;58.30;;;;;;5053081;28;19975;-64